CheckWX is a tool to help pilots better visualize weather data.  It is not intended as a substitute for an official pre-flight weather briefing.

16:47:42 UTC

KDVL METAR
Devils Lake Regional Airport
Devils Lake, North Dakota, USA
Current

52 mins ago

KDVL 071556Z AUTO VRB04KT 10SM FEW075 OVC100 02/M02 A2973 RMK AO2 SLP654 T00221022 FZRANO
Observed
Apr-7 @ 15:56 UTC
Wind
  • Variable at 4 KTS
Visibility
Flight Rules
VFR
Cloud Levels
  • Few at 7,500' AGL
  • Overcast at 10,000' AGL
Temperature
C / 36°F
Dewpoint
-2°C / 28°F
Humidity
75%
Altimeter
29.73" Hg
Pressure
1006.82 hPa
Previous

2 hours ago

KDVL 071456Z AUTO 28008KT 10SM SCT110 02/M02 A2975 RMK AO2 SLP661 T00171017 51014 FZRANO
Observed
Apr-7 @ 14:56 UTC
Wind
  • 280° at 8 KTS
Visibility
Flight Rules
VFR
Cloud Levels
  • Scattered at 11,000' AGL
Temperature
C / 36°F
Dewpoint
-2°C / 28°F
Humidity
75%
Altimeter
29.75" Hg
Pressure
1007.42 hPa
Previous

3 hours ago

KDVL 071356Z AUTO 27008KT 10SM CLR 01/M02 A2974 RMK AO2 SLP659 T00061017 FZRANO
Observed
Apr-7 @ 13:56 UTC
Wind
  • 270° at 8 KTS
Visibility
Flight Rules
VFR
Cloud Levels
  • Clear skies
Temperature
C / 34°F
Dewpoint
-2°C / 28°F
Humidity
81%
Altimeter
29.74" Hg
Pressure
1007.12 hPa